Time;durP1;ratioP1;P1;durP2;ratioP2;P2;SDS_P1;SDS_P2;PMS_P1;PMS_P2;Temp;Humidity;BMP_temperature;BMP_pressure;BME280_temperature;BME280_humidity;BME280_pressure;Samples;Min_cycle;Max_cycle;Signal;HPM_P1;HPM_P2
2022/05/23 00:00:39;;;;;;;5.75;1.20;;;15.50;99.90;;;;;;5028381;28;20045;-69
2022/05/23 00:03:06;;;;;;;6.80;1.42;;;15.70;99.90;;;;;;5020721;28;20437;-70
2022/05/23 00:05:33;;;;;;;4.82;0.85;;;16.00;99.90;;;;;;5025167;28;20029;-70
2022/05/23 00:08:02;;;;;;;8.88;2.10;;;16.20;99.90;;;;;;5025972;28;20413;-69
2022/05/23 00:10:29;;;;;;;11.65;4.15;;;16.40;99.90;;;;;;5020393;28;20030;-69
2022/05/23 00:12:56;;;;;;;5.57;1.13;;;16.20;99.90;;;;;;5020991;28;20502;-69
2022/05/23 00:15:24;;;;;;;3.83;0.80;;;16.20;99.90;;;;;;5021885;28;20021;-69
2022/05/23 00:17:51;;;;;;;8.32;1.00;;;16.00;99.90;;;;;;5018963;28;20152;-69
2022/05/23 00:20:22;;;;;;;6.38;1.17;;;15.80;99.90;;;;;;5021400;28;20054;-69
2022/05/23 00:22:49;;;;;;;6.55;1.00;;;15.60;99.90;;;;;;5022539;28;20024;-68
2022/05/23 00:25:17;;;;;;;4.18;0.50;;;15.30;99.90;;;;;;5025797;28;20509;-69
2022/05/23 00:27:46;;;;;;;9.27;1.15;;;15.10;99.90;;;;;;5016949;28;20034;-69
2022/05/23 00:30:23;;;;;;;7.13;0.82;;;14.80;99.90;;;;;;5017757;28;20128;-69
2022/05/23 00:35:37;;;;;;;5.65;0.57;;;14.70;99.90;;;;;;5024826;28;20507;-69
2022/05/23 00:38:05;;;;;;;4.25;0.55;;;14.70;99.90;;;;;;5023821;28;20034;-69
2022/05/23 00:40:35;;;;;;;4.63;0.75;;;14.80;99.90;;;;;;5015003;28;20489;-69
2022/05/23 00:43:27;;;;;;;6.05;0.88;;;14.80;99.90;;;;;;5017716;28;20386;-69
2022/05/23 00:46:04;;;;;;;5.22;0.60;;;14.80;99.90;;;;;;5015304;28;20030;-70
2022/05/23 00:48:33;;;;;;;5.47;1.17;;;14.80;99.90;;;;;;5021351;28;20038;-69
2022/05/23 00:51:03;;;;;;;4.53;0.70;;;14.80;99.90;;;;;;5021053;28;21078;-69
2022/05/23 00:53:42;;;;;;;2.88;0.40;;;14.60;99.90;;;;;;5025623;28;20089;-69
2022/05/23 00:56:12;;;;;;;4.63;1.15;;;14.60;99.90;;;;;;5019916;28;20105;-69
2022/05/23 00:58:57;;;;;;;4.70;1.30;;;14.60;99.90;;;;;;5022328;28;20025;-69
2022/05/23 01:01:29;;;;;;;4.03;1.30;;;14.60;99.90;;;;;;5027383;28;20044;-70
2022/05/23 01:03:57;;;;;;;3.30;1.05;;;14.70;99.90;;;;;;5025001;28;20417;-69
2022/05/23 01:06:24;;;;;;;3.50;1.10;;;14.80;99.90;;;;;;5023623;28;20108;-68
2022/05/23 01:08:55;;;;;;;5.25;1.05;;;14.90;99.90;;;;;;5014087;28;20059;-71
2022/05/23 01:11:23;;;;;;;8.40;1.70;;;15.00;99.90;;;;;;5028748;28;20413;-71
2022/05/23 01:13:53;;;;;;;6.40;1.10;;;15.20;99.90;;;;;;5020616;28;20083;-72
2022/05/23 01:16:23;;;;;;;8.70;1.98;;;15.30;99.90;;;;;;5019666;28;20041;-70
2022/05/23 01:18:50;;;;;;;4.43;1.15;;;15.40;99.90;;;;;;5026298;28;20053;-70
2022/05/23 01:21:29;;;;;;;4.55;0.85;;;15.30;99.90;;;;;;5023984;28;21338;-70
2022/05/23 01:24:23;;;;;;;6.85;1.38;;;15.40;99.90;;;;;;5028776;28;20022;-71
2022/05/23 01:26:51;;;;;;;5.97;2.00;;;15.50;99.90;;;;;;5014674;28;20030;-70
2022/05/23 01:29:18;;;;;;;5.05;1.02;;;15.60;99.90;;;;;;5019126;28;20026;-69
2022/05/23 01:31:46;;;;;;;4.72;1.35;;;15.50;99.90;;;;;;5019616;28;20025;-70
2022/05/23 01:34:13;;;;;;;10.60;1.50;;;15.50;99.90;;;;;;5023162;28;20100;-70
2022/05/23 01:36:40;;;;;;;5.57;2.10;;;15.50;99.90;;;;;;5029902;28;20393;-70
2022/05/23 01:39:08;;;;;;;7.10;2.28;;;15.60;99.90;;;;;;5021809;28;20021;-70
2022/05/23 01:41:38;;;;;;;8.50;2.08;;;15.50;99.90;;;;;;5023257;28;20402;-70
2022/05/23 01:44:05;;;;;;;10.68;1.85;;;15.40;99.90;;;;;;5015458;28;20030;-70
2022/05/23 01:46:33;;;;;;;5.53;1.40;;;15.40;99.90;;;;;;5016606;28;20032;-70
2022/05/23 01:49:00;;;;;;;6.07;1.08;;;15.50;99.90;;;;;;5012441;28;20026;-70
2022/05/23 01:51:28;;;;;;;4.93;1.05;;;15.70;99.90;;;;;;5012378;28;20389;-71
2022/05/23 01:53:55;;;;;;;5.18;0.60;;;15.70;99.90;;;;;;5013403;28;20636;-70
2022/05/23 01:56:23;;;;;;;5.28;0.73;;;15.50;99.90;;;;;;5016788;28;20022;-70
2022/05/23 02:01:36;;;;;;;4.50;0.63;;;15.20;99.90;;;;;;5028485;28;20095;-70
2022/05/23 02:04:04;;;;;;;8.45;1.63;;;15.10;99.90;;;;;;5027575;28;20021;-70
2022/05/23 02:06:31;;;;;;;5.45;1.45;;;15.10;99.90;;;;;;5015279;28;20382;-70
2022/05/23 02:08:58;;;;;;;9.13;1.80;;;15.20;99.90;;;;;;5016767;28;20034;-70
2022/05/23 02:11:25;;;;;;;6.15;1.45;;;15.20;99.90;;;;;;5027236;28;20028;-70
2022/05/23 02:13:53;;;;;;;6.30;1.73;;;15.30;99.90;;;;;;5017774;28;20034;-71
2022/05/23 02:16:25;;;;;;;3.85;1.95;;;15.30;99.90;;;;;;5027498;28;20040;-71
2022/05/23 02:18:52;;;;;;;9.80;1.88;;;15.40;99.90;;;;;;5011701;28;20033;-71
2022/05/23 02:21:20;;;;;;;9.10;2.15;;;15.40;99.90;;;;;;5025471;28;20053;-71
2022/05/23 02:23:48;;;;;;;6.88;1.15;;;15.40;99.90;;;;;;5029701;28;20041;-71
2022/05/23 02:26:15;;;;;;;8.90;1.67;;;15.30;99.90;;;;;;5030722;28;20374;-71
2022/05/23 02:28:42;;;;;;;6.70;1.95;;;15.20;99.90;;;;;;5014603;28;20026;-70
2022/05/23 02:31:10;;;;;;;3.05;1.15;;;15.10;99.90;;;;;;5022381;28;20033;-70
2022/05/23 02:33:37;;;;;;;9.25;1.85;;;15.20;99.90;;;;;;5015160;28;20502;-70
2022/05/23 02:36:05;;;;;;;7.05;2.05;;;15.20;99.90;;;;;;5010143;28;20038;-70
2022/05/23 02:38:32;;;;;;;7.40;1.48;;;15.20;99.90;;;;;;5016464;28;20025;-70
2022/05/23 02:41:00;;;;;;;9.90;2.42;;;15.30;99.90;;;;;;5033891;28;20021;-70
2022/05/23 02:43:27;;;;;;;14.60;6.45;;;15.40;99.90;;;;;;5014802;28;20033;-70
2022/05/23 02:45:54;;;;;;;9.68;2.25;;;15.50;99.90;;;;;;5035162;28;20137;-70
2022/05/23 02:48:22;;;;;;;11.80;1.80;;;15.40;99.90;;;;;;5021619;28;20385;-70
2022/05/23 02:50:49;;;;;;;8.05;1.25;;;15.30;99.90;;;;;;5016919;28;20025;-70
2022/05/23 02:53:17;;;;;;;15.15;1.95;;;15.30;99.90;;;;;;5033199;28;20047;-70
2022/05/23 02:55:44;;;;;;;7.97;1.13;;;15.40;99.90;;;;;;5032658;28;20029;-70
2022/05/23 02:58:11;;;;;;;10.05;1.50;;;15.50;99.90;;;;;;5021832;28;20022;-70
2022/05/23 03:00:39;;;;;;;15.40;1.58;;;15.60;99.90;;;;;;5015206;28;20044;-70
2022/05/23 03:03:09;;;;;;;12.63;2.17;;;15.70;99.90;;;;;;5015703;28;20029;-70
2022/05/23 03:05:47;;;;;;;10.32;1.17;;;15.70;99.90;;;;;;5019962;28;20116;-70
2022/05/23 03:08:18;;;;;;;7.03;2.10;;;15.60;99.90;;;;;;5033288;28;20113;-70
2022/05/23 03:10:47;;;;;;;9.77;2.17;;;15.70;99.90;;;;;;5033568;28;20033;-70
2022/05/23 03:13:14;;;;;;;11.55;1.77;;;15.50;99.90;;;;;;5016197;28;20034;-70
2022/05/23 03:15:42;;;;;;;9.98;1.52;;;15.70;99.90;;;;;;5014900;28;20026;-70
2022/05/23 03:18:10;;;;;;;8.77;1.40;;;15.70;99.90;;;;;;5015609;28;20034;-70
2022/05/23 03:20:37;;;;;;;9.00;2.10;;;15.70;99.90;;;;;;5014980;28;20030;-70
2022/05/23 03:28:37;;;;;;;8.68;1.67;;;15.50;99.90;;;;;;5019411;28;20045;-70
2022/05/23 03:31:05;;;;;;;5.70;1.30;;;15.50;99.90;;;;;;5030014;28;20124;-70
2022/05/23 03:33:33;;;;;;;5.95;1.20;;;15.50;99.90;;;;;;5032021;28;20125;-70
2022/05/23 03:36:01;;;;;;;9.55;1.17;;;15.50;99.90;;;;;;5034231;28;20084;-70
2022/05/23 03:38:29;;;;;;;5.55;1.20;;;15.50;99.90;;;;;;5017806;28;20084;-70
2022/05/23 03:40:56;;;;;;;12.77;1.40;;;15.60;99.90;;;;;;5014550;28;20038;-70
2022/05/23 03:43:23;;;;;;;7.32;1.13;;;15.60;99.90;;;;;;5018091;28;20025;-71
2022/05/23 03:45:51;;;;;;;7.90;1.85;;;15.60;99.90;;;;;;5032025;28;20488;-71
2022/05/23 03:48:18;;;;;;;8.43;1.38;;;15.50;99.90;;;;;;5023041;28;20025;-71
2022/05/23 03:50:46;;;;;;;5.40;0.75;;;15.50;99.90;;;;;;5033297;28;20036;-71
2022/05/23 03:53:13;;;;;;;5.40;1.08;;;15.50;99.90;;;;;;5020748;28;20049;-71
2022/05/23 03:55:40;;;;;;;4.82;0.90;;;15.50;99.90;;;;;;5019223;28;20021;-71
2022/05/23 03:58:08;;;;;;;6.00;0.80;;;15.50;99.90;;;;;;5022030;28;20038;-71
2022/05/23 04:00:35;;;;;;;6.18;1.20;;;15.50;99.90;;;;;;5014304;28;20057;-71
2022/05/23 04:03:02;;;;;;;5.47;1.20;;;15.40;99.90;;;;;;5017773;28;20474;-71
2022/05/23 04:05:29;;;;;;;4.80;1.27;;;15.30;99.90;;;;;;5033144;28;20056;-70
2022/05/23 04:07:57;;;;;;;5.20;1.15;;;15.40;99.90;;;;;;5027589;28;20042;-70
2022/05/23 04:10:24;;;;;;;4.68;1.05;;;15.40;99.90;;;;;;5014117;28;20038;-70
2022/05/23 04:12:51;;;;;;;5.38;0.60;;;15.40;99.90;;;;;;5018926;28;20029;-70
2022/05/23 04:15:18;;;;;;;8.65;1.63;;;15.30;99.90;;;;;;5018396;28;20018;-71
2022/05/23 04:17:46;;;;;;;4.95;0.52;;;15.30;99.90;;;;;;5024497;28;20064;-70
2022/05/23 04:20:13;;;;;;;3.38;0.82;;;15.00;99.90;;;;;;5022203;28;20378;-70
2022/05/23 04:22:41;;;;;;;3.75;0.63;;;14.90;99.90;;;;;;5024650;28;20026;-70
2022/05/23 04:25:08;;;;;;;7.40;0.80;;;14.80;99.90;;;;;;5021583;28;20497;-70
2022/05/23 04:27:35;;;;;;;7.30;0.80;;;15.00;99.90;;;;;;5024758;28;20040;-70
2022/05/23 04:30:05;;;;;;;4.80;0.68;;;15.10;99.90;;;;;;5028425;28;20163;-70
2022/05/23 04:35:18;;;;;;;10.02;2.40;;;15.30;99.90;;;;;;5020809;28;20045;-71
2022/05/23 04:37:48;;;;;;;7.57;1.58;;;15.30;99.90;;;;;;5023037;28;20624;-70
2022/05/23 04:40:19;;;;;;;14.18;1.65;;;15.30;99.90;;;;;;5045632;28;20033;-71
2022/05/23 04:42:46;;;;;;;11.00;1.70;;;15.30;99.90;;;;;;5023713;28;20030;-71
2022/05/23 04:45:14;;;;;;;9.73;1.10;;;15.20;99.90;;;;;;5019828;28;20037;-70
2022/05/23 04:50:27;;;;;;;13.23;1.85;;;15.20;99.90;;;;;;5019655;28;20134;-69
2022/05/23 04:52:57;;;;;;;8.85;0.82;;;15.30;99.90;;;;;;5027288;28;20107;-70
2022/05/23 04:55:25;;;;;;;8.13;1.02;;;15.30;99.90;;;;;;5016995;28;20017;-70
2022/05/23 04:57:53;;;;;;;7.25;1.45;;;15.20;99.90;;;;;;5022369;28;20025;-70
2022/05/23 05:00:22;;;;;;;7.00;1.25;;;15.10;99.90;;;;;;5016716;28;20038;-69
2022/05/23 05:02:50;;;;;;;8.55;1.98;;;15.10;99.90;;;;;;5021046;28;20107;-69
2022/05/23 05:05:18;;;;;;;2.72;0.40;;;15.20;99.90;;;;;;5027455;28;20056;-70
2022/05/23 05:07:46;;;;;;;3.13;0.55;;;15.10;99.90;;;;;;5022940;28;20022;-70
2022/05/23 05:10:13;;;;;;;4.55;0.82;;;15.10;99.90;;;;;;5018793;28;20041;-70
2022/05/23 05:12:40;;;;;;;3.95;0.68;;;15.10;99.90;;;;;;5018273;28;20018;-70
2022/05/23 05:15:08;;;;;;;3.55;1.17;;;15.10;99.90;;;;;;5022310;28;20171;-70
2022/05/23 05:17:36;;;;;;;2.03;0.45;;;15.10;99.90;;;;;;5022062;28;20029;-69
2022/05/23 05:20:04;;;;;;;5.72;1.17;;;15.20;99.90;;;;;;5032714;28;20022;-71
2022/05/23 05:22:32;;;;;;;6.70;2.55;;;15.20;99.90;;;;;;5030670;28;20025;-70
2022/05/23 05:24:59;;;;;;;6.07;2.92;;;15.30;99.90;;;;;;5022891;28;20029;-70
2022/05/23 05:27:26;;;;;;;5.03;3.10;;;15.40;99.90;;;;;;5023351;28;20025;-70
2022/05/23 05:29:53;;;;;;;7.00;3.67;;;15.20;99.90;;;;;;5016593;28;20022;-70
2022/05/23 05:32:44;;;;;;;2.63;1.35;;;15.20;99.90;;;;;;5018871;28;20029;-69
2022/05/23 05:35:18;;;;;;;7.32;1.98;;;15.20;99.90;;;;;;5018440;28;20112;-70
2022/05/23 05:37:55;;;;;;;5.77;1.30;;;15.20;99.90;;;;;;5017124;28;20417;-69
2022/05/23 05:40:27;;;;;;;5.65;1.10;;;15.10;99.90;;;;;;5019801;28;20038;-69
2022/05/23 05:43:03;;;;;;;5.45;1.45;;;15.10;99.90;;;;;;5013787;28;20508;-70
2022/05/23 05:45:51;;;;;;;7.40;1.38;;;15.10;99.90;;;;;;5020594;28;20026;-69
2022/05/23 05:48:19;;;;;;;5.75;0.85;;;15.10;99.90;;;;;;5021347;28;20087;-69
2022/05/23 05:50:49;;;;;;;7.63;0.70;;;15.00;99.90;;;;;;5019835;28;20029;-70
2022/05/23 05:53:24;;;;;;;5.93;0.90;;;14.90;99.90;;;;;;5020062;28;20050;-70
2022/05/23 05:55:52;;;;;;;4.65;0.95;;;14.90;99.90;;;;;;5025859;28;20026;-70
2022/05/23 05:58:20;;;;;;;7.75;0.75;;;14.70;99.90;;;;;;5019637;28;20026;-69
2022/05/23 06:00:47;;;;;;;9.57;0.93;;;14.50;99.90;;;;;;5015735;28;20485;-68
2022/05/23 06:03:15;;;;;;;7.38;1.50;;;14.50;99.90;;;;;;5013913;28;20026;-68
2022/05/23 06:11:26;;;;;;;3.35;0.63;;;14.50;99.90;;;;;;5023131;28;20099;-69
2022/05/23 06:13:59;;;;;;;2.03;0.52;;;14.40;99.90;;;;;;5019429;28;20036;-69
2022/05/23 06:16:29;;;;;;;4.17;1.20;;;14.40;99.90;;;;;;5031588;28;20418;-69
2022/05/23 06:18:57;;;;;;;5.70;1.60;;;14.40;99.90;;;;;;5018175;28;20040;-69
2022/05/23 06:21:26;;;;;;;4.22;2.53;;;14.30;99.90;;;;;;5031093;28;20033;-69
2022/05/23 06:23:54;;;;;;;4.57;2.65;;;14.20;99.90;;;;;;5025253;28;20116;-69
2022/05/23 06:26:23;;;;;;;6.05;3.65;;;14.20;99.90;;;;;;5029098;28;20037;-69
2022/05/23 06:28:51;;;;;;;4.80;1.92;;;14.20;99.90;;;;;;5028894;28;20455;-69
2022/05/23 06:31:20;;;;;;;3.40;0.85;;;14.20;99.90;;;;;;5029414;28;20044;-69
2022/05/23 06:33:48;;;;;;;6.75;0.65;;;14.20;99.90;;;;;;5021419;28;20118;-69
2022/05/23 06:36:16;;;;;;;4.05;1.00;;;14.20;99.90;;;;;;5032580;28;20033;-69
2022/05/23 06:38:43;;;;;;;4.78;1.23;;;14.20;99.90;;;;;;5030441;28;20029;-69
2022/05/23 06:41:12;;;;;;;5.35;1.30;;;14.30;99.90;;;;;;5023362;28;20033;-68
2022/05/23 06:43:42;;;;;;;8.32;2.10;;;14.20;99.90;;;;;;5022764;28;20394;-69
2022/05/23 06:46:11;;;;;;;6.70;2.30;;;14.30;99.90;;;;;;5022499;28;20125;-69
2022/05/23 06:48:39;;;;;;;8.93;2.17;;;14.20;99.90;;;;;;5023785;28;20378;-69
2022/05/23 06:51:07;;;;;;;11.10;3.17;;;14.30;99.90;;;;;;5021250;28;20033;-69
2022/05/23 06:53:35;;;;;;;10.38;4.07;;;14.30;99.90;;;;;;5023061;28;20537;-69
2022/05/23 06:56:02;;;;;;;7.95;3.25;;;14.30;99.90;;;;;;5029221;28;20037;-69
2022/05/23 06:58:30;;;;;;;10.13;2.40;;;14.20;99.90;;;;;;5025295;28;20021;-69
2022/05/23 07:00:57;;;;;;;5.22;1.92;;;14.20;99.90;;;;;;5026005;28;20192;-69
2022/05/23 07:03:24;;;;;;;8.75;2.17;;;14.20;99.90;;;;;;5020805;28;20505;-69
2022/05/23 07:14:08;;;;;;;8.25;4.45;;;14.20;99.90;;;;;;5030447;28;20024;-69
2022/05/23 07:16:36;;;;;;;13.27;4.82;;;14.20;99.90;;;;;;5030456;28;20049;-69
2022/05/23 07:19:04;;;;;;;8.27;4.60;;;14.30;99.90;;;;;;5032899;28;20370;-69
2022/05/23 07:21:32;;;;;;;9.13;5.38;;;14.30;99.90;;;;;;5021877;28;20082;-68
2022/05/23 07:23:59;;;;;;;11.65;4.05;;;14.40;99.90;;;;;;5021067;28;20389;-70
2022/05/23 07:26:27;;;;;;;8.80;3.67;;;14.40;99.90;;;;;;5017168;28;20050;-70
2022/05/23 07:28:55;;;;;;;10.55;6.90;;;14.30;99.90;;;;;;5021932;28;20034;-70
2022/05/23 07:31:23;;;;;;;11.70;5.22;;;14.30;99.90;;;;;;5025824;28;20406;-70
2022/05/23 07:33:50;;;;;;;7.25;3.10;;;14.40;99.90;;;;;;5020018;28;20375;-70
2022/05/23 07:36:18;;;;;;;4.75;3.08;;;14.40;99.90;;;;;;5017698;28;20038;-70
2022/05/23 07:38:46;;;;;;;7.63;2.30;;;14.40;99.90;;;;;;5023954;28;20092;-70
2022/05/23 07:41:14;;;;;;;5.82;1.65;;;14.40;99.90;;;;;;5021747;28;20095;-70
2022/05/23 07:43:42;;;;;;;7.70;1.77;;;14.40;99.90;;;;;;5018676;28;20038;-68
2022/05/23 07:46:15;;;;;;;10.18;1.42;;;14.40;99.90;;;;;;5024964;28;20030;-68
2022/05/23 07:48:48;;;;;;;10.52;1.83;;;14.40;99.90;;;;;;5027678;28;20029;-68
2022/05/23 07:51:18;;;;;;;5.90;2.50;;;14.30;99.90;;;;;;5026722;28;20041;-69
2022/05/23 08:02:04;;;;;;;6.38;1.90;;;14.30;99.90;;;;;;5028480;28;20028;-69
2022/05/23 08:04:31;;;;;;;6.68;1.73;;;14.30;99.90;;;;;;5030357;28;20028;-69
2022/05/23 08:06:59;;;;;;;10.18;2.38;;;14.30;99.90;;;;;;5022121;28;20079;-69
2022/05/23 08:09:26;;;;;;;9.00;1.60;;;14.40;99.90;;;;;;5017666;28;20025;-70
2022/05/23 08:11:54;;;;;;;11.23;1.85;;;14.40;99.90;;;;;;5019317;28;20103;-71
2022/05/23 08:14:22;;;;;;;10.27;2.00;;;14.40;99.90;;;;;;5017846;28;20032;-70
2022/05/23 08:16:51;;;;;;;9.30;1.98;;;14.40;99.90;;;;;;5018689;28;20021;-70
2022/05/23 08:19:18;;;;;;;11.70;2.00;;;14.40;99.90;;;;;;5018750;28;20056;-70
2022/05/23 08:21:52;;;;;;;10.80;2.03;;;14.40;99.90;;;;;;5017158;28;20072;-70
2022/05/23 08:24:20;;;;;;;14.25;2.78;;;14.40;99.90;;;;;;5028050;28;20402;-69
2022/05/23 08:26:47;;;;;;;6.75;2.00;;;14.40;99.90;;;;;;5021603;28;20060;-69
2022/05/23 08:29:14;;;;;;;7.82;2.00;;;14.40;99.90;;;;;;5013352;28;20030;-69
2022/05/23 08:31:42;;;;;;;10.00;2.35;;;14.40;99.90;;;;;;5025060;28;20095;-69
2022/05/23 08:34:10;;;;;;;10.73;2.50;;;14.40;99.90;;;;;;5024118;28;20041;-69
2022/05/23 08:36:37;;;;;;;14.23;2.60;;;14.40;99.90;;;;;;5024532;28;20014;-68
2022/05/23 08:39:04;;;;;;;10.75;1.95;;;14.40;99.90;;;;;;5020186;28;20026;-68
2022/05/23 08:41:38;;;;;;;11.35;2.20;;;14.40;99.90;;;;;;5022547;28;20030;-68
2022/05/23 08:44:10;;;;;;;9.73;1.73;;;14.40;99.90;;;;;;5030849;28;20029;-68
2022/05/23 08:46:55;;;;;;;10.30;2.67;;;14.50;99.90;;;;;;5028588;28;20014;-68
2022/05/23 08:49:40;;;;;;;7.60;1.70;;;14.50;99.90;;;;;;5025697;28;20014;-68
2022/05/23 08:52:16;;;;;;;8.85;1.75;;;14.50;99.90;;;;;;5023749;28;20052;-68
2022/05/23 08:55:17;;;;;;;16.67;2.13;;;14.50;99.90;;;;;;5020011;28;20342;-68
2022/05/23 08:58:07;;;;;;;7.45;2.25;;;14.50;99.90;;;;;;5014132;28;20390;-68
2022/05/23 09:00:56;;;;;;;7.43;1.52;;;14.50;99.90;;;;;;5021269;28;20025;-68
2022/05/23 09:03:30;;;;;;;11.82;2.92;;;14.50;99.90;;;;;;5024940;28;20030;-69
2022/05/23 09:06:26;;;;;;;7.10;2.25;;;14.50;99.90;;;;;;5019247;28;20030;-68
2022/05/23 09:09:01;;;;;;;8.90;2.72;;;14.40;99.90;;;;;;5016469;28;20117;-68
2022/05/23 09:11:36;;;;;;;11.98;3.72;;;14.40;99.90;;;;;;5022043;28;20033;-68
2022/05/23 09:14:09;;;;;;;11.82;3.50;;;14.40;99.90;;;;;;5013821;28;20037;-68
2022/05/23 09:16:40;;;;;;;13.80;3.55;;;14.50;99.90;;;;;;5015561;28;20112;-69
2022/05/23 09:19:32;;;;;;;17.60;3.97;;;14.40;99.90;;;;;;5018179;28;20497;-68
2022/05/23 09:22:18;;;;;;;18.70;4.15;;;14.50;99.90;;;;;;5019090;28;20046;-69
2022/05/23 09:24:49;;;;;;;9.95;3.53;;;14.40;99.90;;;;;;5013026;28;20028;-69
2022/05/23 09:27:35;;;;;;;11.80;3.35;;;14.40;99.90;;;;;;5024791;28;20393;-68
2022/05/23 09:30:05;;;;;;;9.98;2.85;;;14.40;99.90;;;;;;5027847;28;20030;-70
2022/05/23 09:32:43;;;;;;;14.95;2.88;;;14.40;99.90;;;;;;5021152;28;20103;-68
2022/05/23 09:35:25;;;;;;;11.13;2.85;;;14.40;99.90;;;;;;5012306;28;20033;-68
2022/05/23 09:38:16;;;;;;;8.98;2.78;;;14.40;99.90;;;;;;5012373;28;20101;-69
2022/05/23 09:40:44;;;;;;;11.63;3.00;;;14.50;99.90;;;;;;5017544;28;20029;-69
2022/05/23 09:49:20;;;;;;;10.63;4.22;;;14.40;99.90;;;;;;5030444;28;20069;-69
2022/05/23 09:52:14;;;;;;;14.77;3.80;;;14.30;99.90;;;;;;5020014;28;20038;-70
2022/05/23 09:54:54;;;;;;;17.55;6.63;;;14.30;99.90;;;;;;5016831;28;20030;-71
2022/05/23 09:57:32;;;;;;;22.92;6.05;;;14.30;99.90;;;;;;5017006;28;20092;-69
2022/05/23 10:00:01;;;;;;;16.85;5.95;;;14.30;99.90;;;;;;5022305;28;20541;-70
2022/05/23 10:02:31;;;;;;;14.50;5.47;;;14.30;99.90;;;;;;5025704;28;20034;-71
2022/05/23 10:05:22;;;;;;;10.52;4.43;;;14.30;99.90;;;;;;5024665;28;20061;-69
2022/05/23 10:07:54;;;;;;;10.48;4.07;;;14.30;99.90;;;;;;5017734;28;20112;-70
2022/05/23 10:10:28;;;;;;;13.10;3.58;;;14.30;99.90;;;;;;5018527;28;20033;-70
2022/05/23 10:13:25;;;;;;;14.68;4.75;;;14.30;99.90;;;;;;5022982;28;20051;-69
2022/05/23 10:15:57;;;;;;;10.13;3.40;;;14.30;99.90;;;;;;5017916;28;20026;-70
2022/05/23 10:18:31;;;;;;;10.68;3.17;;;14.30;99.90;;;;;;5021501;28;20040;-71
2022/05/23 10:21:18;;;;;;;9.05;3.38;;;14.30;99.90;;;;;;5032516;28;20030;-69
2022/05/23 10:24:01;;;;;;;14.48;3.80;;;14.30;99.90;;;;;;5032136;28;20393;-70
2022/05/23 10:26:33;;;;;;;14.43;4.30;;;14.40;99.90;;;;;;5030693;28;20029;-69
2022/05/23 10:29:20;;;;;;;14.65;3.40;;;14.30;99.90;;;;;;5031908;28;20037;-69
2022/05/23 10:31:49;;;;;;;11.00;3.63;;;14.30;99.90;;;;;;5031598;28;20393;-70
2022/05/23 10:34:25;;;;;;;10.15;3.78;;;14.30;99.90;;;;;;5015896;28;20112;-69
2022/05/23 10:36:54;;;;;;;9.35;2.45;;;14.30;99.90;;;;;;5031142;28;20172;-69
2022/05/23 10:42:39;;;;;;;11.15;2.58;;;14.30;99.90;;;;;;5020237;28;20087;-69
2022/05/23 10:45:23;;;;;;;8.25;2.30;;;14.30;99.90;;;;;;5017281;28;20057;-69
2022/05/23 10:48:05;;;;;;;4.03;1.80;;;14.20;99.90;;;;;;5024378;28;20021;-69
2022/05/23 10:50:55;;;;;;;9.68;2.25;;;14.20;99.90;;;;;;5030896;28;20038;-69
2022/05/23 10:53:37;;;;;;;7.15;1.85;;;14.20;99.90;;;;;;5017217;28;20510;-70
2022/05/23 10:56:19;;;;;;;5.68;1.63;;;14.20;99.90;;;;;;5016041;28;20018;-70
2022/05/23 10:58:55;;;;;;;9.85;1.58;;;14.20;99.90;;;;;;5023146;28;20036;-68
2022/05/23 11:02:10;;;;;;;8.98;2.15;;;14.20;99.90;;;;;;5015438;28;20025;-70
2022/05/23 11:05:11;;;;;;;5.97;1.30;;;14.20;99.90;;;;;;5017636;28;20124;-69
2022/05/23 11:07:58;;;;;;;4.68;1.35;;;14.20;99.90;;;;;;5028456;28;20068;-72
2022/05/23 11:10:41;;;;;;;4.55;1.33;;;14.20;99.90;;;;;;5018755;28;20117;-70
2022/05/23 11:13:45;;;;;;;4.30;1.10;;;14.20;99.90;;;;;;5026425;28;20030;-69
2022/05/23 11:16:44;;;;;;;5.40;1.58;;;14.20;99.90;;;;;;5011177;28;20038;-69
2022/05/23 11:19:11;;;;;;;10.30;2.10;;;14.10;99.90;;;;;;5032752;28;20079;-68
2022/05/23 11:21:56;;;;;;;5.00;0.90;;;14.20;99.90;;;;;;5030437;28;20056;-69
2022/05/23 11:24:50;;;;;;;4.18;1.65;;;14.20;99.90;;;;;;5014826;28;20064;-70
2022/05/23 11:35:44;;;;;;;8.43;2.67;;;14.20;99.90;;;;;;5023172;28;20083;-69
2022/05/23 11:38:12;;;;;;;10.70;3.17;;;14.20;99.90;;;;;;5021567;28;20029;-70
2022/05/23 11:40:39;;;;;;;8.52;2.38;;;14.20;99.90;;;;;;5025970;28;20018;-69
2022/05/23 11:43:20;;;;;;;7.10;2.13;;;14.20;99.90;;;;;;5030088;28;20026;-70
2022/05/23 11:46:04;;;;;;;8.60;1.60;;;14.20;99.90;;;;;;5020227;28;20063;-68
2022/05/23 11:48:46;;;;;;;8.20;1.70;;;14.20;99.90;;;;;;5024314;28;20033;-70
2022/05/23 11:51:25;;;;;;;4.70;1.60;;;14.20;99.90;;;;;;5025520;28;20398;-71
2022/05/23 11:54:03;;;;;;;16.25;2.50;;;14.20;99.90;;;;;;5018901;28;20042;-70
2022/05/23 11:56:42;;;;;;;8.77;1.88;;;14.20;99.90;;;;;;5025172;28;20379;-69
2022/05/23 11:59:30;;;;;;;5.38;1.85;;;14.20;99.90;;;;;;5025493;28;20064;-70
2022/05/23 12:02:10;;;;;;;11.10;2.45;;;14.20;99.90;;;;;;5024620;28;20091;-70
2022/05/23 12:04:40;;;;;;;7.90;2.75;;;14.20;99.90;;;;;;5026547;28;20096;-70
2022/05/23 12:07:08;;;;;;;7.90;2.47;;;14.20;99.90;;;;;;5025528;28;20030;-70
2022/05/23 12:09:38;;;;;;;6.13;3.00;;;14.20;99.90;;;;;;5025335;28;20041;-69
2022/05/23 12:12:34;;;;;;;10.45;2.85;;;14.20;99.90;;;;;;5018526;28;20038;-71
2022/05/23 12:15:01;;;;;;;8.75;2.42;;;14.20;99.90;;;;;;5020894;28;20030;-72
2022/05/23 12:17:34;;;;;;;8.60;1.75;;;14.20;99.90;;;;;;5027456;28;20029;-70
2022/05/23 12:20:21;;;;;;;11.50;2.03;;;14.20;99.90;;;;;;5020922;28;20475;-71
2022/05/23 12:23:13;;;;;;;7.43;1.73;;;14.20;99.90;;;;;;5017157;28;20115;-70
2022/05/23 12:25:41;;;;;;;12.48;3.25;;;14.20;99.90;;;;;;5017341;28;20036;-68
2022/05/23 12:28:20;;;;;;;9.40;2.60;;;14.20;99.90;;;;;;5021064;28;20025;-69
2022/05/23 12:31:09;;;;;;;8.70;2.72;;;14.20;99.90;;;;;;5018911;28;20348;-69
2022/05/23 12:33:52;;;;;;;6.57;2.10;;;14.20;99.90;;;;;;5017261;28;20038;-68
2022/05/23 12:36:23;;;;;;;5.00;1.77;;;14.20;99.90;;;;;;5018430;28;20060;-69
2022/05/23 12:39:34;;;;;;;4.88;2.15;;;14.10;99.90;;;;;;5016914;28;20125;-69
2022/05/23 12:42:07;;;;;;;5.82;2.20;;;14.00;99.90;;;;;;5020732;28;20037;-69
2022/05/23 12:44:49;;;;;;;9.95;1.75;;;14.00;99.90;;;;;;5017666;28;20025;-69
2022/05/23 12:47:37;;;;;;;9.27;2.60;;;13.90;99.90;;;;;;5017437;28;20685;-69
2022/05/23 12:50:41;;;;;;;6.28;2.33;;;13.90;99.90;;;;;;5019833;28;20038;-69
2022/05/23 12:53:53;;;;;;;9.18;2.78;;;13.80;99.90;;;;;;5014607;28;20440;-69
2022/05/23 12:56:41;;;;;;;5.35;2.20;;;13.80;99.90;;;;;;5017041;28;20030;-69
2022/05/23 12:59:20;;;;;;;6.47;3.17;;;13.70;99.90;;;;;;5021985;28;20025;-69
2022/05/23 13:01:54;;;;;;;10.90;3.10;;;13.60;99.90;;;;;;5018021;28;20049;-69
2022/05/23 13:04:25;;;;;;;7.13;3.40;;;13.60;99.90;;;;;;5013384;28;20076;-69
2022/05/23 13:07:02;;;;;;;12.15;4.18;;;13.50;99.90;;;;;;5018163;28;20053;-69
2022/05/23 13:09:47;;;;;;;7.75;3.50;;;13.50;99.90;;;;;;5026355;28;20486;-69
2022/05/23 13:12:42;;;;;;;11.50;3.13;;;13.50;99.90;;;;;;5018072;28;20103;-69
2022/05/23 13:15:10;;;;;;;9.43;2.70;;;13.50;99.90;;;;;;5025061;28;20095;-69
2022/05/23 13:17:43;;;;;;;9.05;2.97;;;13.50;99.90;;;;;;5021721;28;20139;-69
2022/05/23 13:23:25;;;;;;;5.60;2.25;;;13.50;99.90;;;;;;5022505;28;20079;-69
2022/05/23 13:25:53;;;;;;;6.05;2.83;;;13.50;99.90;;;;;;5020413;28;20094;-70
2022/05/23 13:28:21;;;;;;;8.32;2.25;;;13.50;99.90;;;;;;5024136;28;20037;-69
2022/05/23 13:30:56;;;;;;;9.05;2.55;;;13.50;99.90;;;;;;5022641;28;20092;-69
2022/05/23 13:33:31;;;;;;;8.60;2.33;;;13.40;99.90;;;;;;5018331;28;20040;-69
2022/05/23 13:36:01;;;;;;;8.32;3.03;;;13.40;99.90;;;;;;5021797;28;20541;-69
2022/05/23 13:38:43;;;;;;;8.27;2.40;;;13.40;99.90;;;;;;5022923;28;20071;-69
2022/05/23 13:41:27;;;;;;;9.40;2.38;;;13.40;99.90;;;;;;5016423;28;20030;-69
2022/05/23 13:43:54;;;;;;;4.80;2.60;;;13.30;99.90;;;;;;5022944;28;20026;-69
2022/05/23 13:46:32;;;;;;;6.95;2.42;;;13.30;99.90;;;;;;5017293;28;20655;-69
2022/05/23 13:49:12;;;;;;;7.18;2.10;;;13.30;99.90;;;;;;5016270;28;20034;-69
2022/05/23 13:51:51;;;;;;;10.73;2.97;;;13.30;99.90;;;;;;5018907;28;20453;-69
2022/05/23 13:54:29;;;;;;;8.45;2.95;;;13.20;99.90;;;;;;5028818;28;20085;-69
2022/05/23 13:57:12;;;;;;;8.95;2.55;;;13.20;99.90;;;;;;5019569;28;20393;-69
2022/05/23 13:59:44;;;;;;;6.80;3.83;;;13.20;99.90;;;;;;5020840;28;20128;-69
2022/05/23 14:02:25;;;;;;;5.38;2.67;;;13.20;99.90;;;;;;5017649;28;20059;-69
2022/05/23 14:04:54;;;;;;;10.13;3.35;;;13.20;99.90;;;;;;5022098;28;20485;-69
2022/05/23 14:07:26;;;;;;;8.05;3.33;;;13.10;99.90;;;;;;5028471;28;20026;-69
2022/05/23 14:09:55;;;;;;;7.97;3.20;;;13.10;99.90;;;;;;5013473;28;20030;-69
2022/05/23 14:12:29;;;;;;;12.93;3.33;;;13.10;99.90;;;;;;5020694;28;20030;-69